PWSweather.com
Personal Weather Stations
Station Observations
STWO1
East Side, Stillwater, OK 74075

East SideStillwater, OK 74075

Lat: 36.1242949, Lon: -97.044042

Elevation: 942

Station Type: Davis VP2

http://stillwaterweather.com

High Low Average
Temperature 71.4°F21.9°C 62.2°F16.8°C 67.5°F19.7°C
Dew Point 65.8°F18.8°C 53.4°F11.9°C 59.5°F15.3°C
Winds 10.4 mph 16.7 kmh Calm Calm 2.0 mph SSW3.2 kmh SSW
Wind Gusts 15.0 mph24.1 kmh -- 4.0 mph6.4 kmh
Humidity 91% 54% 76%
Pressure 30.05 in1017.6 mb 29.84 in1010.5 mb -
Precipitation 0.03 in0.8 mm - -
Hour Temp Dew Point Humidity Winds Wind Gusts Pressure Precip Precip Rate Daily Precip Total
12:00 AM 70.0°F21.1°C 63.2°F17.3°C 79% 6.9 mph S11.1 kmh S 9.2 mph14.8 kmh 29.85 in1010.8 mb - 0.00 in0.0 mm 0.00 in0.0 mm
12:10 AM 70.0°F21.1°C 63.2°F17.3°C 79% 6.9 mph S11.1 kmh S 11.5 mph18.5 kmh 29.85 in1010.8 mb - 0.00 in0.0 mm 0.00 in0.0 mm
12:20 AM 70.2°F21.2°C 63.7°F17.6°C 80% 5.8 mph SSE9.3 kmh SSE 9.2 mph14.8 kmh 29.85 in1010.8 mb - 0.00 in0.0 mm 0.00 in0.0 mm
12:30 AM 70.4°F21.3°C 63.9°F17.7°C 80% 6.9 mph S11.1 kmh S 11.5 mph18.5 kmh 29.86 in1011.2 mb - 0.00 in0.0 mm 0.00 in0.0 mm
12:40 AM 70.5°F21.4°C 64.0°F17.8°C 80% 6.9 mph SSE11.1 kmh SSE 11.5 mph18.5 kmh 29.86 in1011.2 mb - 0.00 in0.0 mm 0.00 in0.0 mm
12:50 AM 70.5°F21.4°C 64.4°F18.0°C 81% 8.1 mph SSE13.0 kmh SSE 10.4 mph16.7 kmh 29.86 in1011.2 mb - 0.00 in0.0 mm 0.00 in0.0 mm
01:00 AM 70.4°F21.3°C 64.3°F17.9°C 81% 3.5 mph SSE5.6 kmh SSE 8.1 mph13.0 kmh 29.86 in1011.2 mb - 0.00 in0.0 mm 0.00 in0.0 mm
01:10 AM 69.8°F21.0°C 64.1°F17.8°C 82% 4.6 mph SE7.4 kmh SE 5.8 mph9.3 kmh 29.86 in1011.2 mb - 0.00 in0.0 mm 0.00 in0.0 mm
01:20 AM 69.1°F20.6°C 63.7°F17.6°C 83% 4.6 mph SSE7.4 kmh SSE 8.1 mph13.0 kmh 29.86 in1011.2 mb - 0.00 in0.0 mm 0.00 in0.0 mm
01:30 AM 68.8°F20.4°C 63.8°F17.7°C 84% 4.6 mph SSE7.4 kmh SSE 5.8 mph9.3 kmh 29.86 in1011.2 mb - 0.00 in0.0 mm 0.00 in0.0 mm
01:40 AM 68.6°F20.3°C 63.9°F17.7°C 85% 5.8 mph SSE9.3 kmh SSE 9.2 mph14.8 kmh 29.85 in1010.8 mb - 0.00 in0.0 mm 0.00 in0.0 mm
01:50 AM 68.8°F20.4°C 64.4°F18.0°C 86% 2.3 mph SSE3.7 kmh SSE 4.6 mph7.4 kmh 29.85 in1010.8 mb - 0.00 in0.0 mm 0.00 in0.0 mm
02:00 AM 69.0°F20.6°C 64.6°F18.1°C 86% 6.9 mph SSE11.1 kmh SSE 10.4 mph16.7 kmh 29.85 in1010.8 mb - 0.00 in0.0 mm 0.00 in0.0 mm
02:10 AM 69.0°F20.6°C 64.6°F18.1°C 86% 5.8 mph S9.3 kmh S 10.4 mph16.7 kmh 29.84 in1010.5 mb - 0.00 in0.0 mm 0.00 in0.0 mm
02:20 AM 69.1°F20.6°C 64.7°F18.2°C 86% 5.8 mph SSE9.3 kmh SSE 6.9 mph11.1 kmh 29.84 in1010.5 mb - 0.00 in0.0 mm 0.00 in0.0 mm
02:30 AM 69.1°F20.6°C 64.7°F18.2°C 86% Calm Calm 2.3 mph3.7 kmh 29.85 in1010.8 mb - 0.00 in0.0 mm 0.00 in0.0 mm
02:40 AM 69.0°F20.6°C 65.0°F18.3°C 87% 3.5 mph NW5.6 kmh NW 4.6 mph7.4 kmh 29.89 in1012.2 mb - 0.00 in0.0 mm 0.00 in0.0 mm
02:50 AM 69.1°F20.6°C 65.1°F18.4°C 87% Calm Calm 2.3 mph3.7 kmh 29.88 in1011.9 mb - 0.00 in0.0 mm 0.00 in0.0 mm
03:00 AM 69.0°F20.6°C 65.0°F18.3°C 87% 2.3 mph NW3.7 kmh NW 3.5 mph5.6 kmh 29.90 in1012.5 mb - 0.00 in0.0 mm 0.00 in0.0 mm
03:10 AM 69.1°F20.6°C 65.1°F18.4°C 87% Calm Calm -- 29.89 in1012.2 mb - 0.00 in0.0 mm 0.00 in0.0 mm
03:20 AM 69.0°F20.6°C 65.0°F18.3°C 87% Calm Calm -- 29.90 in1012.5 mb - 0.00 in0.0 mm 0.00 in0.0 mm
03:30 AM 68.9°F20.5°C 64.9°F18.3°C 87% 1.2 mph NW1.9 kmh NW 1.2 mph1.9 kmh 29.90 in1012.5 mb - 0.00 in0.0 mm 0.00 in0.0 mm
03:40 AM 68.8°F20.4°C 64.8°F18.2°C 87% Calm Calm 1.2 mph1.9 kmh 29.89 in1012.2 mb - 0.00 in0.0 mm 0.00 in0.0 mm
03:50 AM 68.7°F20.4°C 65.0°F18.3°C 88% Calm Calm -- 29.91 in1012.9 mb - 0.00 in0.0 mm 0.00 in0.0 mm
04:00 AM 68.8°F20.4°C 65.1°F18.4°C 88% Calm Calm -- 29.91 in1012.9 mb - 0.00 in0.0 mm 0.00 in0.0 mm
04:10 AM 68.8°F20.4°C 65.1°F18.4°C 88% Calm Calm 1.2 mph1.9 kmh 29.90 in1012.5 mb - 0.00 in0.0 mm 0.00 in0.0 mm
04:20 AM 68.7°F20.4°C 65.0°F18.3°C 88% Calm Calm -- 29.91 in1012.9 mb - 0.00 in0.0 mm 0.00 in0.0 mm
04:30 AM 68.6°F20.3°C 64.9°F18.3°C 88% Calm Calm -- 29.91 in1012.9 mb - 0.00 in0.0 mm 0.00 in0.0 mm
04:40 AM 68.5°F20.3°C 64.8°F18.2°C 88% Calm Calm -- 29.91 in1012.9 mb - 0.00 in0.0 mm 0.00 in0.0 mm
04:50 AM 68.5°F20.3°C 65.1°F18.4°C 89% Calm Calm -- 29.91 in1012.9 mb - 0.00 in0.0 mm 0.00 in0.0 mm
05:00 AM 68.3°F20.2°C 64.9°F18.3°C 89% Calm Calm -- 29.92 in1013.2 mb - 0.00 in0.0 mm 0.00 in0.0 mm
05:10 AM 68.3°F20.2°C 64.9°F18.3°C 89% Calm Calm -- 29.92 in1013.2 mb - 0.00 in0.0 mm 0.00 in0.0 mm
05:20 AM 68.3°F20.2°C 64.9°F18.3°C 89% Calm Calm -- 29.92 in1013.2 mb - 0.00 in0.0 mm 0.00 in0.0 mm
05:30 AM 68.2°F20.1°C 64.8°F18.2°C 89% Calm Calm -- 29.93 in1013.5 mb - 0.00 in0.0 mm 0.00 in0.0 mm
05:40 AM 68.3°F20.2°C 64.9°F18.3°C 89% Calm Calm -- 29.93 in1013.5 mb - 0.00 in0.0 mm 0.00 in0.0 mm
05:50 AM 68.2°F20.1°C 65.2°F18.4°C 90% Calm Calm -- 29.94 in1013.9 mb - 0.00 in0.0 mm 0.00 in0.0 mm
06:00 AM 68.2°F20.1°C 65.2°F18.4°C 90% 2.3 mph NW3.7 kmh NW 3.5 mph5.6 kmh 29.93 in1013.5 mb - 0.00 in0.0 mm 0.00 in0.0 mm
06:10 AM 68.1°F20.1°C 65.1°F18.4°C 90% 2.3 mph NW3.7 kmh NW 3.5 mph5.6 kmh 29.92 in1013.2 mb - 0.00 in0.0 mm 0.00 in0.0 mm
06:20 AM 68.2°F20.1°C 65.2°F18.4°C 90% 2.3 mph SE3.7 kmh SE 3.5 mph5.6 kmh 29.92 in1013.2 mb - 0.00 in0.0 mm 0.00 in0.0 mm
06:30 AM 68.1°F20.1°C 65.1°F18.4°C 90% 3.5 mph SSE5.6 kmh SSE 8.1 mph13.0 kmh 29.91 in1012.9 mb - 0.00 in0.0 mm 0.00 in0.0 mm
06:40 AM 68.0°F20.0°C 65.0°F18.3°C 90% 2.3 mph S3.7 kmh S 5.8 mph9.3 kmh 29.91 in1012.9 mb - 0.00 in0.0 mm 0.00 in0.0 mm
06:50 AM 68.0°F20.0°C 65.0°F18.3°C 90% 4.6 mph SSE7.4 kmh SSE 4.6 mph7.4 kmh 29.92 in1013.2 mb - 0.00 in0.0 mm 0.00 in0.0 mm
07:00 AM 68.1°F20.1°C 65.1°F18.4°C 90% 1.2 mph S1.9 kmh S 3.5 mph5.6 kmh 29.92 in1013.2 mb - 0.00 in0.0 mm 0.00 in0.0 mm
07:10 AM 68.4°F20.2°C 65.3°F18.5°C 90% 2.3 mph S3.7 kmh S 3.5 mph5.6 kmh 29.93 in1013.5 mb - 0.00 in0.0 mm 0.00 in0.0 mm
07:20 AM 68.6°F20.3°C 65.5°F18.6°C 90% 2.3 mph S3.7 kmh S 3.5 mph5.6 kmh 29.93 in1013.5 mb - 0.00 in0.0 mm 0.00 in0.0 mm
07:30 AM 68.8°F20.4°C 65.4°F18.6°C 89% 1.2 mph S1.9 kmh S 2.3 mph3.7 kmh 29.93 in1013.5 mb - 0.00 in0.0 mm 0.00 in0.0 mm
07:40 AM 69.0°F20.6°C 65.6°F18.7°C 89% Calm Calm 1.2 mph1.9 kmh 29.94 in1013.9 mb - 0.00 in0.0 mm 0.00 in0.0 mm
07:50 AM 69.1°F20.6°C 65.7°F18.7°C 89% Calm Calm 1.2 mph1.9 kmh 29.94 in1013.9 mb - 0.00 in0.0 mm 0.00 in0.0 mm
08:00 AM 69.2°F20.7°C 65.8°F18.8°C 89% Calm Calm 3.5 mph5.6 kmh 29.95 in1014.2 mb - 0.00 in0.0 mm 0.00 in0.0 mm
08:10 AM 69.1°F20.6°C 65.4°F18.6°C 88% 6.9 mph N11.1 kmh N 12.7 mph20.4 kmh 29.96 in1014.6 mb - 0.00 in0.0 mm 0.00 in0.0 mm
08:20 AM 67.5°F19.7°C 63.5°F17.5°C 87% 10.4 mph N16.7 kmh N 12.7 mph20.4 kmh 29.98 in1015.2 mb - 0.00 in0.0 mm 0.00 in0.0 mm
08:30 AM 64.2°F17.9°C 59.9°F15.5°C 86% 6.9 mph N11.1 kmh N 15.0 mph24.1 kmh 29.98 in1015.2 mb - 0.01 in0.3 mm 0.01 in0.3 mm
08:40 AM 62.7°F17.1°C 59.1°F15.1°C 88% 4.6 mph NNW7.4 kmh NNW 9.2 mph14.8 kmh 29.99 in1015.6 mb - 0.00 in0.0 mm 0.01 in0.3 mm
08:50 AM 62.3°F16.8°C 59.0°F15.0°C 89% 1.2 mph N1.9 kmh N 5.8 mph9.3 kmh 29.99 in1015.6 mb - 0.01 in0.3 mm 0.02 in0.5 mm
09:00 AM 62.2°F16.8°C 59.2°F15.1°C 90% 4.6 mph N7.4 kmh N 5.8 mph9.3 kmh 30.00 in1015.9 mb - 0.00 in0.0 mm 0.02 in0.5 mm
09:10 AM 62.2°F16.8°C 59.2°F15.1°C 90% 1.2 mph N1.9 kmh N 4.6 mph7.4 kmh 30.00 in1015.9 mb - 0.00 in0.0 mm 0.02 in0.5 mm
09:20 AM 62.3°F16.8°C 59.7°F15.4°C 91% 2.3 mph NNE3.7 kmh NNE 4.6 mph7.4 kmh 30.00 in1015.9 mb - 0.00 in0.0 mm 0.02 in0.5 mm
09:30 AM 62.5°F16.9°C 59.8°F15.4°C 91% 2.3 mph N3.7 kmh N 3.5 mph5.6 kmh 30.00 in1015.9 mb - 0.00 in0.0 mm 0.02 in0.5 mm
09:40 AM 62.7°F17.1°C 60.1°F15.6°C 91% 3.5 mph NNW5.6 kmh NNW 11.5 mph18.5 kmh 30.01 in1016.3 mb - 0.00 in0.0 mm 0.02 in0.5 mm
09:50 AM 62.9°F17.2°C 59.9°F15.5°C 90% 2.3 mph NNW3.7 kmh NNW 3.5 mph5.6 kmh 30.01 in1016.3 mb - 0.00 in0.0 mm 0.02 in0.5 mm
10:00 AM 63.0°F17.2°C 60.0°F15.6°C 90% 1.2 mph N1.9 kmh N 2.3 mph3.7 kmh 30.01 in1016.3 mb - 0.00 in0.0 mm 0.02 in0.5 mm
10:10 AM 63.1°F17.3°C 60.1°F15.6°C 90% 2.3 mph N3.7 kmh N 3.5 mph5.6 kmh 30.01 in1016.3 mb - 0.00 in0.0 mm 0.02 in0.5 mm
10:20 AM 63.2°F17.3°C 59.6°F15.3°C 88% 1.2 mph NE1.9 kmh NE 2.3 mph3.7 kmh 30.02 in1016.6 mb - 0.00 in0.0 mm 0.02 in0.5 mm
10:30 AM 63.1°F17.3°C 58.9°F14.9°C 86% 1.2 mph NNE1.9 kmh NNE 3.5 mph5.6 kmh 30.02 in1016.6 mb - 0.00 in0.0 mm 0.02 in0.5 mm
10:40 AM 63.2°F17.3°C 58.3°F14.6°C 84% 3.5 mph N5.6 kmh N 3.5 mph5.6 kmh 30.03 in1016.9 mb - 0.00 in0.0 mm 0.02 in0.5 mm
10:50 AM 63.3°F17.4°C 58.4°F14.7°C 84% Calm Calm -- 30.03 in1016.9 mb - 0.00 in0.0 mm 0.02 in0.5 mm
11:00 AM 63.3°F17.4°C 59.1°F15.1°C 86% 1.2 mph N1.9 kmh N 2.3 mph3.7 kmh 30.04 in1017.3 mb - 0.00 in0.0 mm 0.02 in0.5 mm
11:10 AM 63.2°F17.3°C 58.9°F14.9°C 86% Calm Calm -- 30.03 in1016.9 mb - 0.00 in0.0 mm 0.02 in0.5 mm
11:20 AM 63.4°F17.4°C 59.1°F15.1°C 86% Calm Calm 2.3 mph3.7 kmh 30.04 in1017.3 mb - 0.00 in0.0 mm 0.02 in0.5 mm
11:30 AM 63.6°F17.6°C 59.3°F15.2°C 86% 1.2 mph N1.9 kmh N 2.3 mph3.7 kmh 30.04 in1017.3 mb - 0.00 in0.0 mm 0.02 in0.5 mm
11:40 AM 63.8°F17.7°C 59.2°F15.1°C 85% 2.3 mph N3.7 kmh N 3.5 mph5.6 kmh 30.05 in1017.6 mb - 0.00 in0.0 mm 0.02 in0.5 mm
11:50 AM 64.2°F17.9°C 59.6°F15.3°C 85% Calm Calm 2.3 mph3.7 kmh 30.04 in1017.3 mb - 0.00 in0.0 mm 0.02 in0.5 mm
12:00 PM 64.6°F18.1°C 59.4°F15.2°C 83% 3.5 mph NNW5.6 kmh NNW 4.6 mph7.4 kmh 30.04 in1017.3 mb - 0.00 in0.0 mm 0.02 in0.5 mm
12:10 PM 65.2°F18.4°C 59.2°F15.1°C 81% 6.9 mph NNW11.1 kmh NNW 9.2 mph14.8 kmh 30.04 in1017.3 mb - 0.00 in0.0 mm 0.02 in0.5 mm
12:20 PM 65.3°F18.5°C 57.9°F14.4°C 77% 4.6 mph N7.4 kmh N 3.5 mph5.6 kmh 30.04 in1017.3 mb - 0.00 in0.0 mm 0.02 in0.5 mm
12:30 PM 65.8°F18.8°C 58.4°F14.7°C 77% 3.5 mph NNW5.6 kmh NNW 5.8 mph9.3 kmh 30.04 in1017.3 mb - 0.00 in0.0 mm 0.02 in0.5 mm
12:40 PM 66.6°F19.2°C 58.4°F14.7°C 75% 3.5 mph N5.6 kmh N 3.5 mph5.6 kmh 30.04 in1017.3 mb - 0.00 in0.0 mm 0.02 in0.5 mm
12:50 PM 66.8°F19.3°C 57.9°F14.4°C 73% 4.6 mph N7.4 kmh N 5.8 mph9.3 kmh 30.04 in1017.3 mb - 0.00 in0.0 mm 0.02 in0.5 mm
01:00 PM 66.6°F19.2°C 57.3°F14.1°C 72% 4.6 mph N7.4 kmh N 3.5 mph5.6 kmh 30.04 in1017.3 mb - 0.00 in0.0 mm 0.02 in0.5 mm
01:10 PM 67.4°F19.7°C 57.7°F14.3°C 71% 2.3 mph N3.7 kmh N 3.5 mph5.6 kmh 30.03 in1016.9 mb - 0.00 in0.0 mm 0.02 in0.5 mm
01:20 PM 68.6°F20.3°C 58.5°F14.7°C 70% 1.2 mph N1.9 kmh N 3.5 mph5.6 kmh 30.03 in1016.9 mb - 0.00 in0.0 mm 0.02 in0.5 mm
01:30 PM 69.0°F20.6°C 58.8°F14.9°C 70% 1.2 mph N1.9 kmh N 3.5 mph5.6 kmh 30.02 in1016.6 mb - 0.00 in0.0 mm 0.02 in0.5 mm
01:40 PM 69.6°F20.9°C 59.3°F15.2°C 70% 1.2 mph N1.9 kmh N 3.5 mph5.6 kmh 30.02 in1016.6 mb - 0.00 in0.0 mm 0.02 in0.5 mm
01:50 PM 69.7°F20.9°C 57.8°F14.3°C 66% 4.6 mph N7.4 kmh N 6.9 mph11.1 kmh 30.02 in1016.6 mb - 0.00 in0.0 mm 0.02 in0.5 mm
02:00 PM 69.3°F20.7°C 57.0°F13.9°C 65% 2.3 mph N3.7 kmh N 4.6 mph7.4 kmh 30.02 in1016.6 mb - 0.00 in0.0 mm 0.02 in0.5 mm
02:10 PM 70.1°F21.2°C 57.8°F14.3°C 65% 2.3 mph NNE3.7 kmh NNE 3.5 mph5.6 kmh 30.02 in1016.6 mb - 0.00 in0.0 mm 0.02 in0.5 mm
02:20 PM 70.9°F21.6°C 57.7°F14.3°C 63% 3.5 mph N5.6 kmh N 5.8 mph9.3 kmh 30.02 in1016.6 mb - 0.00 in0.0 mm 0.02 in0.5 mm
02:30 PM 70.2°F21.2°C 55.7°F13.2°C 60% 3.5 mph N5.6 kmh N 5.8 mph9.3 kmh 30.01 in1016.3 mb - 0.00 in0.0 mm 0.02 in0.5 mm
02:40 PM 70.4°F21.3°C 55.8°F13.2°C 60% 1.2 mph NNW1.9 kmh NNW 3.5 mph5.6 kmh 30.01 in1016.3 mb - 0.00 in0.0 mm 0.02 in0.5 mm
02:50 PM 70.6°F21.4°C 54.6°F12.6°C 57% 2.3 mph E3.7 kmh E 5.8 mph9.3 kmh 30.01 in1016.3 mb - 0.01 in0.3 mm 0.03 in0.8 mm
03:00 PM 70.6°F21.4°C 56.0°F13.3°C 60% 1.2 mph E1.9 kmh E 3.5 mph5.6 kmh 30.01 in1016.3 mb - 0.00 in0.0 mm 0.03 in0.8 mm
03:10 PM 70.7°F21.5°C 55.6°F13.1°C 59% 3.5 mph N5.6 kmh N 8.1 mph13.0 kmh 30.01 in1016.3 mb - 0.00 in0.0 mm 0.03 in0.8 mm
03:20 PM 71.2°F21.8°C 56.1°F13.4°C 59% Calm Calm 4.6 mph7.4 kmh 30.01 in1016.3 mb - 0.00 in0.0 mm 0.03 in0.8 mm
03:30 PM 71.0°F21.7°C 54.5°F12.5°C 56% 2.3 mph E3.7 kmh E 6.9 mph11.1 kmh 30.01 in1016.3 mb - 0.00 in0.0 mm 0.03 in0.8 mm
03:40 PM 70.9°F21.6°C 54.4°F12.4°C 56% 4.6 mph N7.4 kmh N 9.2 mph14.8 kmh 30.00 in1015.9 mb - 0.00 in0.0 mm 0.03 in0.8 mm
03:50 PM 71.0°F21.7°C 54.6°F12.6°C 56% 2.3 mph NNE3.7 kmh NNE 8.1 mph13.0 kmh 30.00 in1015.9 mb - 0.00 in0.0 mm 0.03 in0.8 mm
04:00 PM 70.9°F21.6°C 53.9°F12.2°C 55% 1.2 mph N1.9 kmh N 4.6 mph7.4 kmh 29.99 in1015.6 mb - 0.00 in0.0 mm 0.03 in0.8 mm
04:10 PM 71.2°F21.8°C 53.7°F12.1°C 54% 1.2 mph ENE1.9 kmh ENE 3.5 mph5.6 kmh 29.99 in1015.6 mb - 0.00 in0.0 mm 0.03 in0.8 mm
04:20 PM 70.9°F21.6°C 53.4°F11.9°C 54% 2.3 mph ENE3.7 kmh ENE 8.1 mph13.0 kmh 29.98 in1015.2 mb - 0.00 in0.0 mm 0.03 in0.8 mm
04:30 PM 70.8°F21.6°C 53.8°F12.1°C 55% 2.3 mph E3.7 kmh E 3.5 mph5.6 kmh 29.98 in1015.2 mb - 0.00 in0.0 mm 0.03 in0.8 mm
04:40 PM 70.8°F21.6°C 54.8°F12.7°C 57% 1.2 mph ENE1.9 kmh ENE 4.6 mph7.4 kmh 29.98 in1015.2 mb - 0.00 in0.0 mm 0.03 in0.8 mm
04:50 PM 70.7°F21.5°C 53.8°F12.1°C 55% 2.3 mph ENE3.7 kmh ENE 3.5 mph5.6 kmh 29.98 in1015.2 mb - 0.00 in0.0 mm 0.03 in0.8 mm
05:00 PM 70.7°F21.5°C 54.2°F12.3°C 56% 1.2 mph ENE1.9 kmh ENE 3.5 mph5.6 kmh 29.97 in1014.9 mb - 0.00 in0.0 mm 0.03 in0.8 mm
05:10 PM 70.7°F21.5°C 54.7°F12.6°C 57% Calm Calm 2.3 mph3.7 kmh 29.97 in1014.9 mb - 0.00 in0.0 mm 0.03 in0.8 mm
05:20 PM 70.9°F21.6°C 53.9°F12.2°C 55% 1.2 mph ESE1.9 kmh ESE 2.3 mph3.7 kmh 29.97 in1014.9 mb - 0.00 in0.0 mm 0.03 in0.8 mm
05:30 PM 71.1°F21.7°C 54.6°F12.6°C 56% 2.3 mph ESE3.7 kmh ESE 3.5 mph5.6 kmh 29.97 in1014.9 mb - 0.00 in0.0 mm 0.03 in0.8 mm
05:40 PM 71.0°F21.7°C 55.5°F13.1°C 58% Calm Calm 1.2 mph1.9 kmh 29.97 in1014.9 mb - 0.00 in0.0 mm 0.03 in0.8 mm
05:50 PM 70.9°F21.6°C 55.9°F13.3°C 59% Calm Calm 2.3 mph3.7 kmh 29.97 in1014.9 mb - 0.00 in0.0 mm 0.03 in0.8 mm
06:00 PM 71.3°F21.8°C 56.7°F13.7°C 60% 1.2 mph ESE1.9 kmh ESE 2.3 mph3.7 kmh 29.97 in1014.9 mb - 0.00 in0.0 mm 0.03 in0.8 mm
06:10 PM 71.4°F21.9°C 56.3°F13.5°C 59% Calm Calm 1.2 mph1.9 kmh 29.96 in1014.6 mb - 0.00 in0.0 mm 0.03 in0.8 mm
06:20 PM 71.0°F21.7°C 56.5°F13.6°C 60% 1.2 mph E1.9 kmh E 1.2 mph1.9 kmh 29.96 in1014.6 mb - 0.00 in0.0 mm 0.03 in0.8 mm
06:30 PM 70.6°F21.4°C 56.1°F13.4°C 60% 1.2 mph E1.9 kmh E 3.5 mph5.6 kmh 29.96 in1014.6 mb - 0.00 in0.0 mm 0.03 in0.8 mm
06:40 PM 70.4°F21.3°C 56.3°F13.5°C 61% 1.2 mph E1.9 kmh E 3.5 mph5.6 kmh 29.96 in1014.6 mb - 0.00 in0.0 mm 0.03 in0.8 mm
06:50 PM 70.1°F21.2°C 56.0°F13.3°C 61% 1.2 mph E1.9 kmh E 3.5 mph5.6 kmh 29.96 in1014.6 mb - 0.00 in0.0 mm 0.03 in0.8 mm
07:00 PM 69.7°F20.9°C 55.7°F13.2°C 61% 1.2 mph E1.9 kmh E 2.3 mph3.7 kmh 29.96 in1014.6 mb - 0.00 in0.0 mm 0.03 in0.8 mm
07:10 PM 69.4°F20.8°C 56.3°F13.5°C 63% 1.2 mph E1.9 kmh E 2.3 mph3.7 kmh 29.95 in1014.2 mb - 0.00 in0.0 mm 0.03 in0.8 mm
07:20 PM 69.1°F20.6°C 56.0°F13.3°C 63% 2.3 mph E3.7 kmh E 2.3 mph3.7 kmh 29.95 in1014.2 mb - 0.00 in0.0 mm 0.03 in0.8 mm
07:30 PM 68.8°F20.4°C 56.1°F13.4°C 64% 1.2 mph E1.9 kmh E 2.3 mph3.7 kmh 29.95 in1014.2 mb - 0.00 in0.0 mm 0.03 in0.8 mm
07:40 PM 68.6°F20.3°C 56.4°F13.6°C 65% Calm Calm -- 29.95 in1014.2 mb - 0.00 in0.0 mm 0.03 in0.8 mm
07:50 PM 68.4°F20.2°C 56.6°F13.7°C 66% 1.2 mph E1.9 kmh E 2.3 mph3.7 kmh 29.95 in1014.2 mb - 0.00 in0.0 mm 0.03 in0.8 mm
08:00 PM 68.1°F20.1°C 55.9°F13.3°C 65% 1.2 mph E1.9 kmh E 1.2 mph1.9 kmh 29.95 in1014.2 mb - 0.00 in0.0 mm 0.03 in0.8 mm
08:10 PM 67.7°F19.8°C 55.9°F13.3°C 66% Calm Calm 2.3 mph3.7 kmh 29.95 in1014.2 mb - 0.00 in0.0 mm 0.03 in0.8 mm
08:20 PM 67.4°F19.7°C 56.1°F13.4°C 67% Calm Calm 1.2 mph1.9 kmh 29.95 in1014.2 mb - 0.00 in0.0 mm 0.03 in0.8 mm
08:30 PM 67.2°F19.6°C 56.3°F13.5°C 68% Calm Calm 2.3 mph3.7 kmh 29.95 in1014.2 mb - 0.00 in0.0 mm 0.03 in0.8 mm
08:40 PM 67.0°F19.4°C 56.5°F13.6°C 69% Calm Calm 2.3 mph3.7 kmh 29.95 in1014.2 mb - 0.00 in0.0 mm 0.03 in0.8 mm
08:50 PM 66.8°F19.3°C 56.3°F13.5°C 69% 2.3 mph E3.7 kmh E 3.5 mph5.6 kmh 29.94 in1013.9 mb - 0.00 in0.0 mm 0.03 in0.8 mm
09:00 PM 66.5°F19.2°C 56.4°F13.6°C 70% Calm Calm 1.2 mph1.9 kmh 29.95 in1014.2 mb - 0.00 in0.0 mm 0.03 in0.8 mm
09:10 PM 66.3°F19.1°C 56.6°F13.7°C 71% Calm Calm 2.3 mph3.7 kmh 29.96 in1014.6 mb - 0.00 in0.0 mm 0.03 in0.8 mm
09:20 PM 66.2°F19.0°C 56.5°F13.6°C 71% 2.3 mph E3.7 kmh E 3.5 mph5.6 kmh 29.96 in1014.6 mb - 0.00 in0.0 mm 0.03 in0.8 mm
09:30 PM 66.0°F18.9°C 56.7°F13.7°C 72% Calm Calm 1.2 mph1.9 kmh 29.96 in1014.6 mb - 0.00 in0.0 mm 0.03 in0.8 mm
09:40 PM 65.9°F18.8°C 56.6°F13.7°C 72% Calm Calm -- 29.97 in1014.9 mb - 0.00 in0.0 mm 0.03 in0.8 mm
09:50 PM 65.9°F18.8°C 56.6°F13.7°C 72% 1.2 mph E1.9 kmh E 2.3 mph3.7 kmh 29.98 in1015.2 mb - 0.00 in0.0 mm 0.03 in0.8 mm
10:00 PM 65.9°F18.8°C 57.0°F13.9°C 73% Calm Calm 1.2 mph1.9 kmh 29.98 in1015.2 mb - 0.00 in0.0 mm 0.03 in0.8 mm
10:10 PM 65.8°F18.8°C 56.9°F13.8°C 73% 1.2 mph E1.9 kmh E 3.5 mph5.6 kmh 29.97 in1014.9 mb - 0.00 in0.0 mm 0.03 in0.8 mm
10:20 PM 65.6°F18.7°C 56.7°F13.7°C 73% 3.5 mph E5.6 kmh E 8.1 mph13.0 kmh 29.97 in1014.9 mb - 0.00 in0.0 mm 0.03 in0.8 mm
10:30 PM 65.5°F18.6°C 57.0°F13.9°C 74% 1.2 mph E1.9 kmh E 3.5 mph5.6 kmh 29.97 in1014.9 mb - 0.00 in0.0 mm 0.03 in0.8 mm
10:40 PM 65.4°F18.6°C 56.9°F13.8°C 74% 1.2 mph ESE1.9 kmh ESE 2.3 mph3.7 kmh 29.97 in1014.9 mb - 0.00 in0.0 mm 0.03 in0.8 mm
10:50 PM 65.3°F18.5°C 56.8°F13.8°C 74% 3.5 mph SE5.6 kmh SE 8.1 mph13.0 kmh 29.96 in1014.6 mb - 0.00 in0.0 mm 0.03 in0.8 mm
11:00 PM 65.2°F18.4°C 57.1°F13.9°C 75% 2.3 mph ESE3.7 kmh ESE 5.8 mph9.3 kmh 29.95 in1014.2 mb - 0.00 in0.0 mm 0.03 in0.8 mm
11:10 PM 65.1°F18.4°C 57.0°F13.9°C 75% 3.5 mph SE5.6 kmh SE 6.9 mph11.1 kmh 29.95 in1014.2 mb - 0.00 in0.0 mm 0.03 in0.8 mm
11:20 PM 64.9°F18.3°C 56.8°F13.8°C 75% 2.3 mph ENE3.7 kmh ENE 3.5 mph5.6 kmh 29.95 in1014.2 mb - 0.00 in0.0 mm 0.03 in0.8 mm
11:30 PM 64.8°F18.2°C 56.7°F13.7°C 75% 2.3 mph E3.7 kmh E 3.5 mph5.6 kmh 29.94 in1013.9 mb - 0.00 in0.0 mm 0.03 in0.8 mm
11:40 PM 64.7°F18.2°C 57.0°F13.9°C 76% 1.2 mph E1.9 kmh E 3.5 mph5.6 kmh 29.95 in1014.2 mb - 0.00 in0.0 mm 0.03 in0.8 mm
11:50 PM 64.6°F18.1°C 56.9°F13.8°C 76% Calm Calm -- 29.94 in1013.9 mb - 0.00 in0.0 mm 0.03 in0.8 mm